Time;durP1;ratioP1;P1;durP2;ratioP2;P2;SDS_P1;SDS_P2;PMS_P1;PMS_P2;Temp;Humidity;BMP_temperature;BMP_pressure;BME280_temperature;BME280_humidity;BME280_pressure;Samples;Min_cycle;Max_cycle;Signal;HPM_P1;HPM_P2
2022/05/11 00:01:34;;;;;;;4.22;1.85;;;;;;;25.73;26.47;100996.84;5054744;28;20543;-74
2022/05/11 00:04:03;;;;;;;4.63;2.20;;;;;;;25.71;25.98;100996.19;5054342;28;20050;-72
2022/05/11 00:06:29;;;;;;;4.88;1.98;;;;;;;25.68;26.62;101003.03;5058313;28;20098;-74
2022/05/11 00:09:02;;;;;;;4.00;2.25;;;;;;;25.71;26.28;100993.41;5053359;28;20044;-73
2022/05/11 00:11:28;;;;;;;;;;;;;;;25.39;26.53;101000.28;5059540;28;20040;-73
2022/05/11 00:13:56;;;;;;;2.75;1.80;;;;;;;25.61;26.41;100993.72;5057265;28;19920;-74
2022/05/11 00:16:26;;;;;;;4.45;1.77;;;;;;;25.65;26.54;100989.50;5056015;28;20048;-74
2022/05/11 00:18:53;;;;;;;3.67;1.98;;;;;;;25.62;26.70;100983.47;5042436;28;20048;-74
2022/05/11 00:21:20;;;;;;;3.58;2.05;;;;;;;25.60;26.53;100989.25;5053096;28;20098;-74
2022/05/11 00:23:48;;;;;;;3.85;2.20;;;;;;;25.60;26.92;100980.03;5055053;28;20037;-74
2022/05/11 00:26:15;;;;;;;3.83;1.98;;;;;;;25.56;26.73;100973.97;5051611;28;20541;-74
2022/05/11 00:28:42;;;;;;;3.97;2.13;;;;;;;25.55;27.05;100974.16;5070249;28;20052;-73
2022/05/11 00:31:09;;;;;;;3.60;2.40;;;;;;;25.53;26.91;100970.75;5055602;28;20044;-74
2022/05/11 00:33:36;;;;;;;4.13;2.25;;;;;;;25.51;26.93;100972.84;5059821;28;20048;-74
2022/05/11 00:36:08;;;;;;;4.70;2.15;;;;;;;25.50;26.96;100966.41;5050564;28;20078;-73
2022/05/11 00:38:35;;;;;;;4.80;2.23;;;;;;;25.44;27.05;100960.78;5053854;28;20578;-73
2022/05/11 00:41:02;;;;;;;4.00;2.28;;;;;;;25.45;26.83;100968.09;5061490;28;20098;-71
2022/05/11 00:43:38;;;;;;;4.47;1.98;;;;;;;25.45;27.17;100963.34;5058260;28;20044;-74
2022/05/11 00:46:23;;;;;;;5.10;2.13;;;;;;;25.37;27.24;100958.78;5050914;28;20047;-73
2022/05/11 00:51:47;;;;;;;3.80;1.92;;;;;;;25.35;27.34;100960.06;5070483;28;20059;-74
2022/05/11 00:54:17;;;;;;;4.28;1.67;;;;;;;25.32;27.45;100952.94;5047545;28;20040;-74
2022/05/11 00:56:50;;;;;;;3.92;1.80;;;;;;;25.33;27.42;100960.25;5054981;28;20052;-74
2022/05/11 00:59:19;;;;;;;;;;;;;;;25.02;27.37;100949.41;5054190;28;20111;-73
2022/05/11 01:01:47;;;;;;;3.20;1.80;;;;;;;25.26;27.19;100945.41;5047175;28;19920;-74
2022/05/11 01:04:18;;;;;;;3.65;1.88;;;;;;;25.31;27.51;100942.03;5057094;28;20545;-73
2022/05/11 01:06:46;;;;;;;3.15;1.80;;;;;;;25.28;27.21;100934.94;5053804;28;20102;-72
2022/05/11 01:09:13;;;;;;;3.47;1.90;;;;;;;25.26;27.68;100934.28;5053849;28;20044;-73
2022/05/11 01:11:48;;;;;;;3.80;2.00;;;;;;;25.29;27.86;100930.25;5053919;28;20059;-73
2022/05/11 01:14:20;;;;;;;3.97;1.77;;;;;;;25.26;27.58;100923.19;5056927;28;20510;-73
2022/05/11 01:16:47;;;;;;;3.27;1.70;;;;;;;25.23;27.40;100931.91;5057311;28;20726;-72
2022/05/11 01:19:25;;;;;;;3.38;1.88;;;;;;;25.26;27.87;100925.09;5058163;28;20642;-73
2022/05/11 01:22:02;;;;;;;3.45;1.95;;;;;;;25.25;27.54;100917.81;5052008;28;20051;-73
2022/05/11 01:24:35;;;;;;;4.35;1.90;;;;;;;25.25;28.11;100921.44;5048775;28;20572;-72
2022/05/11 01:27:24;;;;;;;3.35;1.98;;;;;;;25.21;27.67;100909.00;5054326;28;20052;-74
2022/05/11 01:29:52;;;;;;;4.32;2.33;;;;;;;25.20;27.79;100910.03;5037718;28;20099;-73
2022/05/11 01:32:21;;;;;;;3.92;2.13;;;;;;;25.22;27.89;100905.16;5048929;28;20044;-73
2022/05/11 01:34:56;;;;;;;3.53;1.90;;;;;;;25.22;27.77;100899.59;5048546;28;20059;-74
2022/05/11 01:37:23;;;;;;;5.85;2.28;;;;;;;25.19;28.11;100894.47;5046268;28;20040;-73
2022/05/11 01:39:51;;;;;;;3.58;2.00;;;;;;;25.18;27.84;100891.88;5045891;28;20045;-74
2022/05/11 01:42:19;;;;;;;5.15;2.15;;;;;;;25.15;27.97;100890.34;5056405;28;20099;-74
2022/05/11 01:44:46;;;;;;;4.32;2.08;;;;;;;25.14;28.21;100891.38;5050636;28;20056;-72
2022/05/11 01:47:13;;;;;;;7.18;2.60;;;;;;;25.12;28.34;100899.03;5047341;28;20045;-74
2022/05/11 01:49:40;;;;;;;5.70;2.53;;;;;;;25.11;28.05;100891.81;5050683;28;20060;-74
2022/05/11 01:52:06;;;;;;;6.30;2.58;;;;;;;25.10;28.06;100878.09;5053533;28;20053;-72
2022/05/11 01:54:33;;;;;;;5.35;2.35;;;;;;;25.08;28.69;100886.63;5054165;28;20044;-74
2022/05/11 01:57:00;;;;;;;3.50;2.10;;;;;;;25.08;28.16;100896.88;5059344;28;20048;-74
2022/05/11 01:59:27;;;;;;;4.85;2.20;;;;;;;25.07;28.71;100886.81;5054721;28;20052;-74
2022/05/11 02:01:54;;;;;;;6.00;2.40;;;;;;;25.05;28.43;100883.34;5041411;28;20407;-74
2022/05/11 02:07:52;;;;;;;5.78;2.40;;;;;;;25.01;28.42;100874.56;5072854;28;20056;-74
2022/05/11 02:09:53;;;;;;;4.40;2.20;;;;;;;24.97;28.34;100870.44;5055694;28;20060;-73
2022/05/11 02:12:20;;;;;;;4.47;2.13;;;;;;;24.97;28.61;100862.97;5056583;28;20505;-74
2022/05/11 02:14:47;;;;;;;4.40;2.20;;;;;;;24.95;28.51;100850.38;5052228;28;20040;-74
2022/05/11 02:17:14;;;;;;;4.80;2.30;;;;;;;24.93;28.76;100860.81;5055108;28;20515;-72
2022/05/11 02:19:41;;;;;;;5.00;2.42;;;;;;;24.90;28.20;100852.81;5049749;28;21735;-74
2022/05/11 02:22:07;;;;;;;5.80;2.15;;;;;;;24.89;28.53;100848.31;5055290;28;20044;-74
2022/05/11 02:24:34;;;;;;;5.88;2.50;;;;;;;24.86;28.51;100849.59;5052316;28;20094;-72
2022/05/11 02:27:02;;;;;;;5.55;2.20;;;;;;;24.86;28.65;100849.59;5050225;28;20052;-73
2022/05/11 02:29:32;;;;;;;5.97;2.30;;;;;;;24.85;28.65;100844.22;5052060;28;20045;-73
2022/05/11 02:31:59;;;;;;;4.07;2.25;;;;;;;24.79;28.66;100845.84;5065362;28;20102;-73
2022/05/11 02:37:11;;;;;;;4.05;2.00;;;;;;;24.74;28.44;100831.69;5067147;28;20051;-74
2022/05/11 02:39:37;;;;;;;3.58;1.95;;;;;;;24.75;28.67;100838.13;5079190;28;20045;-74
2022/05/11 02:42:04;;;;;;;3.83;2.10;;;;;;;24.73;28.73;100837.44;5083656;28;20052;-73
2022/05/11 02:44:31;;;;;;;4.35;2.10;;;;;;;24.72;28.57;100832.94;5045036;28;20467;-73
2022/05/11 02:46:58;;;;;;;3.55;1.95;;;;;;;24.70;28.79;100832.28;5069009;28;20052;-72
2022/05/11 02:49:24;;;;;;;4.40;2.35;;;;;;;24.67;28.90;100833.53;5058814;28;20138;-73
2022/05/11 02:51:51;;;;;;;3.75;2.25;;;;;;;24.65;29.12;100824.53;5049289;28;20052;-73
2022/05/11 02:54:17;;;;;;;5.18;2.33;;;;;;;24.63;28.91;100833.06;5070775;28;20104;-72
2022/05/11 02:56:45;;;;;;;4.43;2.17;;;;;;;24.61;28.80;100824.09;5053074;28;20049;-73
2022/05/11 02:59:12;;;;;;;4.97;2.30;;;;;;;24.60;28.82;100819.56;5061035;28;20079;-73
2022/05/11 03:01:38;;;;;;;5.05;2.28;;;;;;;24.59;28.71;100819.78;5060553;28;20390;-73
2022/05/11 03:04:05;;;;;;;3.28;1.83;;;;;;;24.57;28.80;100819.94;5074537;28;20074;-71
2022/05/11 03:06:32;;;;;;;5.60;2.50;;;;;;;24.55;29.05;100815.63;5051414;28;20052;-73
2022/05/11 03:08:59;;;;;;;5.35;2.40;;;;;;;24.55;29.18;100818.41;5063299;28;20088;-74
2022/05/11 03:11:26;;;;;;;4.65;2.15;;;;;;;24.53;29.41;100821.41;5059156;28;20060;-73
2022/05/11 03:13:52;;;;;;;4.53;2.13;;;;;;;24.51;29.31;100814.31;5051463;28;20040;-73
2022/05/11 03:16:25;;;;;;;5.25;2.20;;;;;;;24.49;29.06;100819.19;5055229;28;20048;-73
2022/05/11 03:18:52;;;;;;;5.15;2.17;;;;;;;24.49;29.54;100819.19;5048184;28;20048;-73
2022/05/11 03:21:20;;;;;;;3.47;2.08;;;;;;;24.47;29.40;100813.84;5050943;28;20040;-73
2022/05/11 03:23:46;;;;;;;4.20;2.28;;;;;;;24.46;29.73;100816.84;5046481;28;20452;-73
2022/05/11 03:26:14;;;;;;;3.80;2.22;;;;;;;24.44;29.49;100810.59;5045903;28;20583;-73
2022/05/11 03:28:41;;;;;;;3.58;2.08;;;;;;;24.41;29.67;100814.63;5056125;28;20049;-72
2022/05/11 03:31:07;;;;;;;4.28;2.03;;;;;;;24.40;29.61;100806.47;5057006;28;20047;-73
2022/05/11 03:36:20;;;;;;;4.10;2.28;;;;;;;24.35;29.52;100803.44;5074453;28;20044;-73
2022/05/11 03:38:47;;;;;;;4.20;2.13;;;;;;;24.35;29.32;100800.66;5049216;28;20049;-72
2022/05/11 03:41:14;;;;;;;3.60;2.10;;;;;;;24.32;29.58;100803.81;5046105;28;20041;-73
2022/05/11 03:43:40;;;;;;;3.80;2.20;;;;;;;24.30;29.97;100792.91;5060752;28;20052;-73
2022/05/11 03:46:13;;;;;;;3.80;2.22;;;;;;;24.26;29.53;100794.34;5048046;28;20108;-72
2022/05/11 03:48:40;;;;;;;5.43;2.60;;;;;;;24.26;29.86;100800.78;5052406;28;20047;-73
2022/05/11 03:51:06;;;;;;;4.00;2.00;;;;;;;24.26;30.15;100794.34;5055132;28;20071;-70
2022/05/11 03:53:36;;;;;;;4.35;2.33;;;;;;;24.25;30.27;100792.63;5050018;28;20332;-73
2022/05/11 03:56:02;;;;;;;3.85;2.13;;;;;;;24.22;29.94;100788.31;5053684;28;20053;-73
2022/05/11 03:58:29;;;;;;;4.38;2.17;;;;;;;24.21;30.39;100788.53;5052380;28;20109;-73
2022/05/11 04:00:56;;;;;;;5.45;2.53;;;;;;;24.19;30.00;100793.38;5068825;28;20481;-73
2022/05/11 04:03:22;;;;;;;3.95;2.10;;;;;;;24.18;30.48;100791.66;5054678;28;20532;-73
2022/05/11 04:05:49;;;;;;;4.50;2.00;;;;;;;24.16;30.26;100789.06;5068773;28;20050;-73
2022/05/11 04:08:16;;;;;;;5.00;2.50;;;;;;;24.15;30.30;100786.47;5056317;28;20536;-73
2022/05/11 04:10:42;;;;;;;4.22;2.20;;;;;;;24.14;30.20;100787.53;5049773;28;20057;-73
2022/05/11 04:13:10;;;;;;;4.50;2.67;;;;;;;24.13;30.35;100795.00;5061850;28;20040;-72
2022/05/11 04:15:37;;;;;;;4.20;2.60;;;;;;;24.11;30.61;100797.13;5081774;28;20453;-73
2022/05/11 04:18:03;;;;;;;4.03;2.50;;;;;;;24.10;30.49;100798.16;5050150;28;20098;-73
2022/05/11 04:20:30;;;;;;;4.25;2.55;;;;;;;24.09;30.91;100787.25;5043552;28;20387;-72
2022/05/11 04:22:57;;;;;;;5.97;2.60;;;;;;;24.08;31.00;100791.94;5047643;28;20045;-73
2022/05/11 04:25:24;;;;;;;4.05;2.70;;;;;;;24.07;30.45;100787.44;5051097;28;20044;-74
2022/05/11 04:27:51;;;;;;;4.30;2.80;;;;;;;24.06;31.00;100784.84;5049923;28;20045;-73
2022/05/11 04:30:21;;;;;;;4.65;2.60;;;;;;;24.07;30.80;100783.81;5056845;28;20056;-73
2022/05/11 04:32:47;;;;;;;5.57;2.88;;;;;;;24.04;30.75;100782.28;5034913;28;20060;-75
2022/05/11 04:35:14;;;;;;;6.03;2.95;;;;;;;24.02;31.14;100784.38;5069175;28;20141;-64
2022/05/11 04:37:41;;;;;;;4.00;2.60;;;;;;;24.03;30.95;100785.25;5072397;28;20045;-64
2022/05/11 04:40:10;;;;;;;4.00;2.60;;;;;;;24.03;30.93;100788.88;5064947;28;20070;-64
2022/05/11 04:42:42;;;;;;;5.05;2.88;;;;;;;24.01;31.53;100787.34;5049289;28;20051;-64
2022/05/11 04:45:09;;;;;;;4.30;2.80;;;;;;;24.03;31.72;100788.03;5059077;28;20052;-63
2022/05/11 04:47:43;;;;;;;4.70;2.90;;;;;;;24.07;31.87;100781.03;5051349;28;20076;-63
2022/05/11 04:50:15;;;;;;;4.50;2.97;;;;;;;24.07;31.69;100789.34;5077288;28;20436;-63
2022/05/11 04:52:47;;;;;;;4.45;2.80;;;;;;;24.07;31.54;100790.22;5041286;28;20056;-63
2022/05/11 04:55:14;;;;;;;5.40;3.08;;;;;;;24.05;31.07;100767.34;5059367;28;20071;-63
2022/05/11 04:57:41;;;;;;;4.43;2.90;;;;;;;24.08;31.65;100779.97;5055709;28;20045;-64
2022/05/11 05:00:10;;;;;;;5.25;3.40;;;;;;;24.10;31.95;100775.97;5055306;28;20041;-63
2022/05/11 05:02:37;;;;;;;4.80;2.83;;;;;;;24.11;31.47;100772.16;5051511;28;20110;-63
2022/05/11 05:05:05;;;;;;;5.00;3.05;;;;;;;24.15;31.91;100769.84;5045046;28;20045;-64
2022/05/11 05:07:35;;;;;;;4.75;2.88;;;;;;;24.16;32.10;100761.31;5057050;28;20087;-68
2022/05/11 05:10:03;;;;;;;4.68;2.90;;;;;;;24.21;31.66;100761.63;5080384;28;20048;-63
2022/05/11 05:12:30;;;;;;;4.78;2.85;;;;;;;24.22;31.94;100768.91;5052941;28;20667;-64
2022/05/11 05:14:57;;;;;;;5.95;2.92;;;;;;;24.26;31.98;100761.94;5056705;28;20051;-66
2022/05/11 05:17:24;;;;;;;4.70;3.03;;;;;;;24.30;31.67;100765.16;5049818;28;20049;-63
2022/05/11 05:19:51;;;;;;;5.47;3.65;;;;;;;24.35;32.24;100759.03;5054972;28;20076;-61
2022/05/11 05:22:18;;;;;;;5.63;3.20;;;;;;;24.38;32.02;100762.25;5059013;28;20070;-66
2022/05/11 05:24:45;;;;;;;5.45;3.50;;;;;;;24.43;31.60;100762.56;5054534;28;20056;-64
2022/05/11 05:27:14;;;;;;;4.68;3.40;;;;;;;24.51;32.18;100767.13;5053426;28;20045;-65
2022/05/11 05:32:26;;;;;;;4.50;3.30;;;;;;;24.68;31.90;100776.09;5068763;28;20464;-65
2022/05/11 05:34:53;;;;;;;7.05;3.28;;;;;;;24.82;31.72;100770.47;5057104;28;20126;-64
2022/05/11 05:37:20;;;;;;;4.47;3.40;;;;;;;24.99;32.08;100780.31;5056067;28;20044;-64
2022/05/11 05:39:50;;;;;;;5.68;3.22;;;;;;;25.18;31.43;100778.81;5062059;28;20094;-65
2022/05/11 05:42:18;;;;;;;5.38;3.35;;;;;;;25.40;31.46;100779.63;5047785;28;20045;-65
2022/05/11 05:44:45;;;;;;;5.07;3.50;;;;;;;25.57;31.55;100775.50;5057756;28;20087;-64
2022/05/11 05:47:13;;;;;;;5.78;3.50;;;;;;;25.78;30.77;100780.16;5054855;28;20137;-65
2022/05/11 05:49:40;;;;;;;6.63;3.65;;;;;;;25.94;30.58;100779.00;5051423;28;20060;-65
2022/05/11 05:52:07;;;;;;;5.88;3.45;;;;;;;26.12;30.96;100774.59;5052914;28;20049;-66
2022/05/11 05:54:36;;;;;;;5.60;3.55;;;;;;;26.30;30.83;100776.88;5050218;28;20049;-63
2022/05/11 05:57:03;;;;;;;5.22;3.85;;;;;;;26.43;30.35;100778.88;5053430;28;20044;-63
2022/05/11 05:59:29;;;;;;;6.78;3.67;;;;;;;26.55;29.77;100779.13;5063975;28;20109;-63
2022/05/11 06:01:56;;;;;;;6.07;3.42;;;;;;;26.66;30.14;100773.81;5049407;28;20131;-63
2022/05/11 06:04:23;;;;;;;6.43;3.78;;;;;;;26.75;29.79;100767.00;5052812;28;20044;-64
2022/05/11 06:06:50;;;;;;;5.53;3.78;;;;;;;26.84;29.72;100774.09;5060203;28;20090;-64
2022/05/11 06:09:20;;;;;;;6.80;3.50;;;;;;;26.97;29.49;100775.19;5053553;28;20048;-64
2022/05/11 06:11:46;;;;;;;5.53;3.80;;;;;;;27.00;29.24;100777.56;5053164;28;20092;-65
2022/05/11 06:14:13;;;;;;;8.82;4.05;;;;;;;27.07;29.65;100776.53;5053807;28;20051;-64
2022/05/11 06:16:40;;;;;;;7.15;4.03;;;;;;;27.15;29.46;100779.09;5052146;28;20048;-64
2022/05/11 06:19:06;;;;;;;5.05;3.60;;;;;;;27.21;29.45;100782.97;5065498;28;20127;-63
2022/05/11 06:21:35;;;;;;;6.07;4.20;;;;;;;27.30;29.41;100780.81;5060041;28;20048;-64
2022/05/11 06:24:02;;;;;;;5.80;3.85;;;;;;;27.38;29.30;100777.81;5056271;28;20044;-64
2022/05/11 06:26:29;;;;;;;5.93;4.40;;;;;;;27.45;29.00;100776.75;5052571;28;20106;-64
2022/05/11 06:29:16;;;;;;;5.80;3.90;;;;;;;27.54;28.76;100785.78;5048787;28;20049;-64
2022/05/11 06:31:42;;;;;;;5.85;4.20;;;;;;;27.61;28.91;100779.13;5050297;28;20106;-64
2022/05/11 06:34:09;;;;;;;7.80;4.32;;;;;;;27.69;28.86;100783.63;5048029;28;20060;-64
2022/05/11 06:36:36;;;;;;;7.03;4.05;;;;;;;27.77;28.75;100789.00;5063373;28;20458;-65
2022/05/11 06:39:04;;;;;;;6.53;4.20;;;;;;;27.85;28.62;100779.53;5053364;28;20076;-65
2022/05/11 06:41:31;;;;;;;6.88;4.32;;;;;;;27.92;28.89;100783.19;5051764;28;20056;-65
2022/05/11 06:43:59;;;;;;;6.53;4.43;;;;;;;27.99;28.63;100782.09;5052699;28;20048;-66
2022/05/11 06:46:26;;;;;;;9.20;4.47;;;;;;;28.07;28.50;100794.97;5054436;28;20107;-65
2022/05/11 06:48:53;;;;;;;6.00;4.07;;;;;;;28.15;28.62;100791.09;5050252;28;20045;-66
2022/05/11 06:51:20;;;;;;;7.93;4.38;;;;;;;28.23;28.50;100800.13;5052125;28;20049;-66
2022/05/11 06:59:30;;;;;;;6.90;4.05;;;;;;;28.41;28.25;100787.38;5070946;28;20122;-76
2022/05/11 07:01:58;;;;;;;6.88;3.72;;;;;;;28.47;28.35;100792.94;5051468;28;20048;-76
2022/05/11 07:04:26;;;;;;;6.22;3.78;;;;;;;28.57;28.04;100789.69;5052114;28;20041;-75
2022/05/11 07:06:55;;;;;;;6.40;3.85;;;;;;;28.65;28.14;100790.28;5051709;28;20045;-76
2022/05/11 07:09:24;;;;;;;6.20;3.70;;;;;;;28.72;27.67;100791.09;5052308;28;20059;-76
2022/05/11 07:14:37;;;;;;;5.22;2.70;;;;;;;28.88;27.41;100783.31;5072437;28;20048;-76
2022/05/11 07:17:06;;;;;;;4.43;2.80;;;;;;;28.96;27.79;100792.28;5051827;28;20512;-76
2022/05/11 07:19:33;;;;;;;4.05;2.50;;;;;;;29.03;27.39;100779.13;5055442;28;20071;-76
2022/05/11 07:22:01;;;;;;;4.97;2.60;;;;;;;29.12;27.22;100786.16;5040989;28;20076;-76
2022/05/11 07:24:28;;;;;;;5.38;2.45;;;;;;;29.20;26.96;100782.25;5056897;28;20041;-76
2022/05/11 07:26:55;;;;;;;4.20;1.98;;;;;;;29.30;26.79;100778.94;5052532;28;20368;-76
2022/05/11 07:29:22;;;;;;;4.10;1.95;;;;;;;29.38;26.91;100785.16;5053164;28;20131;-76
2022/05/11 07:31:49;;;;;;;3.85;2.15;;;;;;;29.48;26.21;100767.88;5059990;28;20490;-75
2022/05/11 07:34:16;;;;;;;3.75;1.90;;;;;;;29.54;25.76;100778.13;5051623;28;20659;-76
2022/05/11 07:36:43;;;;;;;4.43;1.80;;;;;;;29.63;25.69;100779.56;5050822;28;20469;-76
2022/05/11 07:39:10;;;;;;;4.07;2.22;;;;;;;29.67;25.66;100772.41;5048966;28;20059;-76
2022/05/11 07:41:37;;;;;;;4.28;1.83;;;;;;;29.73;25.39;100770.66;5050847;28;20132;-75
2022/05/11 07:44:04;;;;;;;3.55;1.70;;;;;;;29.78;25.13;100774.47;5055347;28;20055;-75
2022/05/11 07:46:34;;;;;;;3.92;1.90;;;;;;;29.83;25.39;100777.41;5050772;28;20592;-75
2022/05/11 07:49:03;;;;;;;3.25;1.70;;;;;;;29.88;25.06;100779.53;5054180;28;20582;-76
2022/05/11 07:51:30;;;;;;;5.03;1.50;;;;;;;29.93;25.03;100776.03;5050993;28;20049;-75
2022/05/11 07:53:58;;;;;;;3.10;1.67;;;;;;;29.99;25.31;100778.78;5051241;28;20052;-75
2022/05/11 08:01:55;;;;;;;2.30;1.42;;;;;;;30.16;24.82;100770.63;5068518;28;20110;-76
2022/05/11 08:04:21;;;;;;;3.15;1.80;;;;;;;30.22;24.64;100778.97;5051575;28;20078;-76
2022/05/11 08:06:48;;;;;;;3.25;1.80;;;;;;;30.31;24.41;100770.28;5043374;28;20049;-76
2022/05/11 08:09:15;;;;;;;2.65;1.40;;;;;;;30.36;24.42;100776.88;5048399;28;20338;-76
2022/05/11 08:11:42;;;;;;;3.00;1.58;;;;;;;30.40;24.39;100778.09;5041338;28;20056;-76
2022/05/11 08:14:08;;;;;;;3.03;1.95;;;;;;;30.45;23.98;100769.88;5050976;28;20099;-76
2022/05/11 08:16:35;;;;;;;3.10;1.63;;;;;;;30.48;24.13;100772.16;5049819;28;20053;-75
2022/05/11 08:19:02;;;;;;;3.20;1.65;;;;;;;30.51;24.19;100773.69;5051317;28;20045;-76
2022/05/11 08:21:29;;;;;;;3.30;1.75;;;;;;;30.54;24.15;100773.25;5047890;28;20497;-76
2022/05/11 08:23:55;;;;;;;3.15;1.70;;;;;;;30.59;24.21;100767.75;5045786;28;20102;-76
2022/05/11 08:26:22;;;;;;;2.28;1.40;;;;;;;30.61;24.26;100768.41;5051414;28;20071;-75
2022/05/11 08:28:48;;;;;;;3.45;1.50;;;;;;;30.64;24.11;100763.16;5045220;28;20084;-72
2022/05/11 08:34:21;;;;;;;2.17;1.30;;;;;;;30.68;24.15;100762.69;4971547;28;20049;-73
2022/05/11 08:36:47;;;;;;;2.38;1.30;;;;;;;30.74;24.10;100758.94;4958709;28;20519;-73
2022/05/11 08:39:14;;;;;;;2.13;1.30;;;;;;;30.77;24.01;100762.13;4974879;28;20046;-74
2022/05/11 08:41:49;;;;;;;2.30;1.17;;;;;;;30.85;23.76;100766.53;4990888;28;20046;-74
2022/05/11 08:44:39;;;;;;;1.80;1.30;;;;;;;30.84;23.66;100765.69;4985387;28;20515;-74
2022/05/11 08:47:22;;;;;;;2.97;1.50;;;;;;;30.91;23.63;100765.59;4962670;28;20137;-74
2022/05/11 08:49:53;;;;;;;2.97;1.30;;;;;;;30.96;23.66;100779.78;4987883;28;20080;-74
2022/05/11 08:52:45;;;;;;;2.67;1.50;;;;;;;31.00;23.46;100770.63;4966944;28;20069;-74
2022/05/11 08:55:48;;;;;;;2.70;1.45;;;;;;;31.00;23.67;100778.19;4962657;28;20428;-74
2022/05/11 08:58:27;;;;;;;4.13;1.85;;;;;;;31.04;23.71;100767.34;4961570;28;20124;-74
2022/05/11 09:00:56;;;;;;;3.08;1.85;;;;;;;31.11;23.53;100782.16;4959026;28;20089;-73
2022/05/11 09:03:31;;;;;;;2.72;1.55;;;;;;;31.16;23.35;100765.47;4960021;28;20150;-74
2022/05/11 09:06:29;;;;;;;3.28;1.83;;;;;;;31.11;23.63;100769.00;4960904;28;20081;-74
2022/05/11 09:09:01;;;;;;;3.13;1.73;;;;;;;31.22;23.11;100765.34;4937176;28;20132;-74
2022/05/11 09:11:33;;;;;;;4.10;2.00;;;;;;;31.26;23.07;100763.78;4999479;28;20484;-74
2022/05/11 09:14:01;;;;;;;3.50;1.88;;;;;;;31.25;23.30;100772.44;5050189;28;20044;-74
2022/05/11 09:16:39;;;;;;;4.10;2.00;;;;;;;31.30;22.84;100759.38;5048348;28;20057;-73
2022/05/11 09:19:19;;;;;;;3.13;2.10;;;;;;;31.32;23.20;100756.34;5038338;28;20136;-73
2022/05/11 09:21:52;;;;;;;3.95;1.90;;;;;;;31.36;23.06;100752.84;5049038;28;20052;-74
2022/05/11 09:24:22;;;;;;;4.13;1.98;;;;;;;31.34;23.10;100749.41;5050081;28;20600;-74
2022/05/11 09:27:12;;;;;;;3.78;2.00;;;;;;;31.38;22.96;100747.81;5054436;28;20048;-74
2022/05/11 09:29:44;;;;;;;4.45;2.53;;;;;;;31.44;22.52;100747.97;5057906;28;20410;-76
2022/05/11 09:32:19;;;;;;;3.97;2.08;;;;;;;31.46;22.52;100746.63;5052520;28;20389;-66
2022/05/11 09:34:45;;;;;;;3.78;2.40;;;;;;;31.44;22.70;100747.97;5051044;28;20079;-66
2022/05/11 09:37:36;;;;;;;3.70;2.17;;;;;;;31.48;22.58;100743.56;5063043;28;20168;-66
2022/05/11 09:40:09;;;;;;;3.47;1.98;;;;;;;31.46;22.76;100742.97;5053868;28;20048;-65
2022/05/11 09:42:58;;;;;;;5.28;2.17;;;;;;;31.51;22.35;100740.28;5051120;28;20075;-66
2022/05/11 09:45:38;;;;;;;4.15;2.00;;;;;;;31.51;22.50;100734.66;5050188;28;20105;-65
2022/05/11 09:48:12;;;;;;;4.10;2.00;;;;;;;31.51;22.73;100738.34;5052346;28;20470;-66
2022/05/11 09:50:42;;;;;;;4.10;2.20;;;;;;;31.50;22.66;100735.75;5053962;28;20048;-66
2022/05/11 09:53:21;;;;;;;3.92;2.10;;;;;;;31.52;22.61;100740.03;5052685;28;20501;-66
2022/05/11 09:55:49;;;;;;;6.22;2.38;;;;;;;31.49;22.56;100732.09;5053573;28;20098;-66
2022/05/11 09:58:28;;;;;;;3.20;2.08;;;;;;;31.52;22.26;100728.81;5053480;28;20044;-66
2022/05/11 10:01:11;;;;;;;3.95;2.15;;;;;;;31.52;22.42;100734.44;5046301;28;20086;-65
2022/05/11 10:03:45;;;;;;;5.10;2.42;;;;;;;31.52;22.14;100728.81;5050019;28;20049;-66
2022/05/11 10:06:18;;;;;;;3.88;2.58;;;;;;;31.52;22.34;100722.34;5072514;28;20060;-66
2022/05/11 10:08:50;;;;;;;3.72;2.25;;;;;;;31.49;22.51;100723.69;5051714;28;20075;-67
2022/05/11 10:11:23;;;;;;;3.97;2.33;;;;;;;31.52;22.18;100713.94;5050413;28;20068;-66
2022/05/11 10:21:50;;;;;;;5.20;2.58;;;;;;;31.53;22.41;100721.25;5048987;28;20052;-67
2022/05/11 10:22:38;;;;;;;6.53;2.60;;;;;;;31.54;22.64;100720.16;5067304;28;20067;-65
2022/05/11 10:25:15;;;;;;;4.30;2.20;;;;;;;31.57;22.30;100709.28;5060112;28;20113;-67
2022/05/11 10:28:06;;;;;;;4.85;2.53;;;;;;;31.61;22.53;100709.66;5048034;28;20045;-66
2022/05/11 10:30:52;;;;;;;3.60;2.10;;;;;;;31.64;22.74;100709.19;5055990;28;20040;-65
2022/05/11 10:33:41;;;;;;;3.28;2.00;;;;;;;31.64;22.59;100692.34;5064121;28;20040;-67
2022/05/11 10:36:24;;;;;;;3.33;2.17;;;;;;;31.72;22.26;100698.44;5084552;28;20040;-67
2022/05/11 10:38:54;;;;;;;4.68;2.13;;;;;;;31.71;22.48;100696.72;5053258;28;20036;-66
2022/05/11 10:41:39;;;;;;;3.33;2.17;;;;;;;31.76;22.40;100693.19;5048073;28;20044;-66
2022/05/11 10:44:25;;;;;;;3.25;2.05;;;;;;;31.82;22.34;100691.34;5053191;28;20079;-66
2022/05/11 10:47:27;;;;;;;3.70;2.03;;;;;;;31.82;22.30;100689.41;5047402;28;20562;-67
2022/05/11 10:50:06;;;;;;;;;;;;;;;31.55;23.07;100679.75;5051465;28;20652;-67
2022/05/11 10:52:53;;;;;;;3.75;1.85;;;;;;;31.87;22.60;100685.88;5043034;28;19920;-66
2022/05/11 10:55:26;;;;;;;3.13;1.90;;;;;;;31.93;22.35;100671.69;5047534;28;20056;-67
2022/05/11 10:58:43;;;;;;;2.55;1.70;;;;;;;31.93;22.32;100673.66;5048517;28;20048;-66
2022/05/11 11:01:11;;;;;;;4.00;2.33;;;;;;;32.01;22.15;100662.88;5036537;28;20428;-66
2022/05/11 11:04:16;;;;;;;4.03;2.00;;;;;;;32.06;21.98;100648.94;5052608;28;20048;-66
2022/05/11 11:09:38;;;;;;;3.05;2.05;;;;;;;32.12;21.74;100661.16;5068824;28;20051;-66
2022/05/11 11:12:33;;;;;;;3.00;2.10;;;;;;;32.13;21.52;100646.84;5048979;28;20055;-66
2022/05/11 11:15:05;;;;;;;3.72;2.25;;;;;;;32.10;21.66;100641.72;5056920;28;20114;-66
2022/05/11 11:17:33;;;;;;;4.28;1.88;;;;;;;32.09;21.80;100642.84;5048705;28;20110;-67
2022/05/11 11:20:03;;;;;;;5.22;2.10;;;;;;;32.12;21.78;100645.13;5051273;28;20053;-66
2022/05/11 11:23:06;;;;;;;2.92;1.80;;;;;;;32.10;21.77;100643.69;5044828;28;20098;-66
2022/05/11 11:25:53;;;;;;;3.20;2.00;;;;;;;32.10;21.45;100627.69;5079259;28;20478;-68
2022/05/11 11:28:33;;;;;;;4.07;2.33;;;;;;;32.11;21.61;100631.34;5052959;28;20040;-66
2022/05/11 11:30:59;;;;;;;5.43;2.10;;;;;;;32.09;21.77;100627.94;5051349;28;20052;-66
2022/05/11 11:33:28;;;;;;;3.58;2.55;;;;;;;32.13;21.80;100626.31;5056106;28;20071;-67
2022/05/11 11:35:57;;;;;;;3.40;2.15;;;;;;;32.12;21.34;100622.66;5051825;28;20048;-67
2022/05/11 11:38:24;;;;;;;2.95;2.10;;;;;;;32.14;21.63;100625.22;5073770;28;20036;-66
2022/05/11 11:41:16;;;;;;;4.13;2.22;;;;;;;32.14;21.96;100619.59;5055849;28;20045;-67
2022/05/11 11:44:26;;;;;;;5.30;1.90;;;;;;;32.17;21.83;100607.06;5052509;28;21119;-67
2022/05/11 11:46:53;;;;;;;3.35;2.17;;;;;;;32.17;21.73;100615.47;5041788;28;20076;-66
2022/05/11 11:49:21;;;;;;;4.22;2.58;;;;;;;32.20;21.76;100612.19;5049417;28;20040;-66
2022/05/11 11:51:54;;;;;;;2.45;1.88;;;;;;;32.25;21.27;100615.06;5050903;28;20610;-67
2022/05/11 11:54:47;;;;;;;5.03;2.17;;;;;;;32.25;21.50;100609.47;5051010;28;20086;-67
2022/05/11 11:57:23;;;;;;;3.40;2.10;;;;;;;32.27;21.52;100602.50;5042114;28;20102;-66
2022/05/11 11:59:56;;;;;;;3.42;1.98;;;;;;;32.28;21.68;100608.97;5048143;28;20106;-66
2022/05/11 12:02:32;;;;;;;3.70;1.98;;;;;;;32.31;21.73;100591.59;5046542;28;20517;-67
2022/05/11 12:05:28;;;;;;;2.90;2.00;;;;;;;32.30;21.74;100596.34;5044259;28;20052;-67
2022/05/11 12:16:56;;;;;;;4.40;2.28;;;;;;;32.45;21.67;100584.56;5069644;28;20106;-66
2022/05/11 12:19:32;;;;;;;3.95;2.50;;;;;;;32.47;21.43;100586.00;5043710;28;20077;-65
2022/05/11 12:22:39;;;;;;;3.83;2.15;;;;;;;32.39;21.84;100594.84;5041794;28;20496;-63
2022/05/11 12:25:21;;;;;;;4.03;2.03;;;;;;;32.52;21.48;100592.84;4973441;28;20136;-66
2022/05/11 12:27:48;;;;;;;3.80;2.28;;;;;;;32.50;21.40;100585.50;5041202;28;20052;-64
2022/05/11 12:30:26;;;;;;;3.50;2.10;;;;;;;32.57;21.29;100588.16;5049547;28;20110;-67
2022/05/11 12:32:57;;;;;;;4.70;2.17;;;;;;;32.59;21.61;100573.84;5047515;28;20053;-64
2022/05/11 12:35:32;;;;;;;3.38;2.17;;;;;;;32.60;21.34;100576.41;5052596;28;20055;-66